createdAt,value
2023-06-23T00:03:24.962Z,60.31
2023-06-23T00:08:20.200Z,60.51
2023-06-23T00:13:17.157Z,60.69
2023-06-23T00:18:13.669Z,60.92
2023-06-23T00:23:09.144Z,61.09
2023-06-23T00:28:05.229Z,61.24
2023-06-23T00:33:00.497Z,61.47
2023-06-23T00:37:56.277Z,61.76
2023-06-23T00:42:53.666Z,62.04
2023-06-23T00:47:49.805Z,62.22
2023-06-23T00:52:50.899Z,62.33
2023-06-23T00:57:48.180Z,62.63
2023-06-23T01:02:43.259Z,62.88
2023-06-23T01:07:53.262Z,63.15
2023-06-23T01:12:59.497Z,63.40
2023-06-23T01:18:03.297Z,63.59
2023-06-23T01:23:24.111Z,63.70
2023-06-23T01:28:51.226Z,63.81
2023-06-23T01:33:53.882Z,63.85
2023-06-23T01:38:56.325Z,63.90
2023-06-23T01:43:57.295Z,63.93
2023-06-23T01:48:59.197Z,63.88
2023-06-23T01:53:56.589Z,63.74
2023-06-23T01:58:55.304Z,63.60
2023-06-23T02:03:52.595Z,63.49
2023-06-23T02:08:48.972Z,63.51
2023-06-23T02:13:46.635Z,63.51
2023-06-23T02:18:44.222Z,63.57
2023-06-23T02:23:42.200Z,63.63
2023-06-23T02:28:39.356Z,63.66
2023-06-23T02:33:35.670Z,63.69
2023-06-23T02:38:37.556Z,63.72
2023-06-23T02:43:39.713Z,63.81
2023-06-23T02:48:40.468Z,63.86
2023-06-23T02:53:45.581Z,63.83
2023-06-23T02:58:41.063Z,63.76
2023-06-23T03:03:39.812Z,63.63
2023-06-23T03:08:36.378Z,63.51
2023-06-23T03:13:32.423Z,63.42
2023-06-23T03:18:32.589Z,63.31
2023-06-23T03:23:32.403Z,63.13
2023-06-23T03:28:34.869Z,62.92
2023-06-23T03:33:36.591Z,62.87
2023-06-23T03:38:40.580Z,62.63
2023-06-23T03:43:42.652Z,62.21
2023-06-23T03:48:42.355Z,61.90
2023-06-23T03:53:39.731Z,61.72
2023-06-23T03:58:37.873Z,61.51
2023-06-23T04:03:38.377Z,61.58
2023-06-23T04:08:36.012Z,61.47
2023-06-23T04:13:35.041Z,60.83
2023-06-23T04:18:32.786Z,60.33
2023-06-23T04:23:29.334Z,59.93
2023-06-23T04:28:28.988Z,59.58
2023-06-23T04:33:23.872Z,59.34
2023-06-23T04:38:23.327Z,59.16
2023-06-23T04:43:27.464Z,59.10
2023-06-23T04:48:31.053Z,59.28
2023-06-23T04:53:33.684Z,59.10
2023-06-23T04:58:36.476Z,58.26
2023-06-23T05:03:35.676Z,57.49
2023-06-23T05:08:33.724Z,57.24
2023-06-23T05:13:33.195Z,56.86
2023-06-23T05:18:31.591Z,55.83
2023-06-23T05:23:38.334Z,55.72
2023-06-23T05:28:48.179Z,55.10
2023-06-23T05:33:48.094Z,54.42
2023-06-23T05:38:47.190Z,53.92
2023-06-23T05:43:42.838Z,53.22
2023-06-23T05:48:45.389Z,52.48
2023-06-23T05:53:44.029Z,51.51
2023-06-23T05:58:45.753Z,50.92
2023-06-23T06:03:47.782Z,50.77
2023-06-23T06:08:45.297Z,50.67
2023-06-23T06:13:47.138Z,50.24
2023-06-23T06:18:44.684Z,50.13
2023-06-23T06:23:42.756Z,50.19
2023-06-23T06:28:42.675Z,50.31
2023-06-23T06:33:41.482Z,50.53
2023-06-23T06:38:41.450Z,50.62
2023-06-23T06:43:36.847Z,50.72
2023-06-23T06:48:35.790Z,50.29
2023-06-23T06:53:31.686Z,49.85
2023-06-23T06:58:28.250Z,49.76
2023-06-23T07:03:23.791Z,49.29
2023-06-23T07:08:18.794Z,49.22
2023-06-23T07:13:14.694Z,49.37
2023-06-23T07:18:10.525Z,49.35
2023-06-23T07:23:05.636Z,48.98
2023-06-23T07:28:00.527Z,48.75
2023-06-23T07:32:55.948Z,48.83
2023-06-23T07:37:52.033Z,48.70
2023-06-23T07:42:47.410Z,48.60
2023-06-23T07:47:42.654Z,48.47
2023-06-23T07:52:37.576Z,48.65
2023-06-23T07:57:32.431Z,48.89
2023-06-23T08:02:27.209Z,49.17
2023-06-23T08:07:22.163Z,49.26
2023-06-23T08:12:17.647Z,49.81
2023-06-23T08:17:12.881Z,50.35
2023-06-23T08:22:09.325Z,50.77
2023-06-23T08:27:06.014Z,51.09
2023-06-23T08:32:00.793Z,51.44
2023-06-23T08:36:56.437Z,52.14
2023-06-23T08:41:52.677Z,52.58
2023-06-23T08:52:03.106Z,54.06
2023-06-23T08:56:59.973Z,55.60
2023-06-23T09:01:55.174Z,56.66
2023-06-23T09:06:50.353Z,57.86
2023-06-23T09:11:46.890Z,59.00
2023-06-23T09:16:44.468Z,60.17
2023-06-23T09:21:42.748Z,61.23
2023-06-23T09:26:49.436Z,62.10
2023-06-23T09:31:50.270Z,63.01
2023-06-23T09:36:45.288Z,63.78
2023-06-23T09:41:51.837Z,64.62
2023-06-23T09:46:47.658Z,65.19
2023-06-23T09:51:50.191Z,65.91
2023-06-23T09:56:45.456Z,66.46
2023-06-23T10:01:41.151Z,67.40
2023-06-23T10:06:40.044Z,68.46
2023-06-23T10:11:37.298Z,69.23
2023-06-23T10:16:32.923Z,69.94
2023-06-23T10:21:29.530Z,70.75
2023-06-23T10:26:27.042Z,71.39
2023-06-23T10:31:24.592Z,72.07
2023-06-23T10:36:24.249Z,72.56
2023-06-23T10:41:21.302Z,73.02
2023-06-23T10:46:16.565Z,73.36
2023-06-23T10:51:13.074Z,73.67
2023-06-23T10:56:10.358Z,73.76
2023-06-23T11:01:06.281Z,73.40
2023-06-23T11:06:07.153Z,72.95
2023-06-23T11:11:08.368Z,72.25
2023-06-23T11:16:05.709Z,71.71
2023-06-23T11:21:17.408Z,69.99
2023-06-23T11:26:30.557Z,69.30
2023-06-23T11:31:28.140Z,68.86
2023-06-23T11:36:24.659Z,67.99
2023-06-23T11:41:29.539Z,67.52
2023-06-23T11:46:26.236Z,66.18
2023-06-23T11:51:22.490Z,63.92
2023-06-23T11:56:21.359Z,63.14
2023-06-23T12:01:19.968Z,61.91
2023-06-23T12:06:16.570Z,60.76
2023-06-23T12:11:12.274Z,59.66
2023-06-23T12:16:09.347Z,58.94
2023-06-23T12:21:04.580Z,56.17
2023-06-23T12:26:01.011Z,56.18
2023-06-23T12:30:56.918Z,53.38
2023-06-23T12:36:01.068Z,51.28
2023-06-23T12:40:57.169Z,51.40
2023-06-23T12:45:55.170Z,52.18
2023-06-23T12:50:53.383Z,52.81
2023-06-23T12:55:48.429Z,52.68
2023-06-23T13:00:44.046Z,51.97
2023-06-23T13:05:39.616Z,50.41
2023-06-23T13:10:34.736Z,49.60
2023-06-23T13:15:32.822Z,47.78
2023-06-23T13:20:28.024Z,46.92
2023-06-23T13:25:23.238Z,45.43
2023-06-23T13:30:19.195Z,44.47
2023-06-23T13:35:14.454Z,42.22
2023-06-23T13:40:13.964Z,40.36
2023-06-23T13:45:11.489Z,40.44
2023-06-23T13:50:12.824Z,40.87
2023-06-23T13:55:11.765Z,40.51
2023-06-23T14:00:11.171Z,41.24
2023-06-23T14:05:08.490Z,41.64
2023-06-23T14:10:06.338Z,41.72
2023-06-23T14:15:01.956Z,42.63
2023-06-23T14:19:57.564Z,43.03
2023-06-23T14:24:53.344Z,43.69
2023-06-23T14:29:48.505Z,43.92
2023-06-23T14:34:43.986Z,44.60
2023-06-23T14:39:39.205Z,45.03
2023-06-23T14:44:35.769Z,45.63
2023-06-23T14:49:31.377Z,46.36
2023-06-23T14:54:26.476Z,47.17
2023-06-23T14:59:22.657Z,48.33
2023-06-23T15:04:17.914Z,49.40
2023-06-23T15:09:13.444Z,50.15
2023-06-23T15:14:10.363Z,50.97
2023-06-23T15:19:06.180Z,52.07
2023-06-23T15:24:02.059Z,52.79
2023-06-23T15:28:57.913Z,53.37
2023-06-23T15:33:53.887Z,53.86
2023-06-23T15:38:49.093Z,54.31
2023-06-23T15:43:44.754Z,54.65
2023-06-23T15:48:40.729Z,55.06
2023-06-23T15:53:35.528Z,55.59
2023-06-23T15:58:30.535Z,55.98
2023-06-23T16:03:28.194Z,56.17
2023-06-23T16:08:23.523Z,56.26
2023-06-23T16:13:18.725Z,56.12
2023-06-23T16:18:14.172Z,56.37
2023-06-23T16:23:09.966Z,56.22
2023-06-23T16:28:06.082Z,55.76
2023-06-23T16:33:01.773Z,55.85
2023-06-23T16:37:57.833Z,55.96
2023-06-23T16:42:52.930Z,56.09
2023-06-23T17:02:35.079Z,57.22
2023-06-23T17:15:18.709Z,57.72
2023-06-23T17:21:10.158Z,58.07
2023-06-23T17:26:31.902Z,58.35
2023-06-23T17:31:28.710Z,58.69
2023-06-23T17:36:24.637Z,59.08
2023-06-23T17:41:20.586Z,59.43
2023-06-23T17:46:16.816Z,59.81
2023-06-23T17:51:12.516Z,60.08
2023-06-23T17:57:31.024Z,60.52
2023-06-23T18:02:53.034Z,58.00
2023-06-23T18:07:48.299Z,55.53
2023-06-23T18:12:53.568Z,53.52
2023-06-23T18:19:14.336Z,52.27
2023-06-23T18:24:11.366Z,51.94
2023-06-23T18:29:17.959Z,51.16
2023-06-23T18:34:13.917Z,50.81
2023-06-23T18:39:08.457Z,50.72
2023-06-23T18:44:09.788Z,50.44
2023-06-23T18:56:08.191Z,49.94
2023-06-23T19:01:03.271Z,49.85
2023-06-23T19:05:58.681Z,49.13
2023-06-23T19:10:54.545Z,48.82
2023-06-23T19:15:49.187Z,48.40
2023-06-23T19:20:45.542Z,48.49
2023-06-23T19:25:40.698Z,48.73
2023-06-23T19:30:38.299Z,49.22
2023-06-23T19:35:37.959Z,49.64
2023-06-23T19:40:33.385Z,50.05
2023-06-23T19:45:28.999Z,50.74
2023-06-23T19:50:23.857Z,51.27
2023-06-23T19:55:18.691Z,51.78
2023-06-23T20:00:16.764Z,52.11
2023-06-23T20:05:12.997Z,52.57
2023-06-23T20:10:12.087Z,52.97
2023-06-23T20:15:10.552Z,53.30
2023-06-23T20:20:08.337Z,53.58
2023-06-23T20:25:04.486Z,53.93
2023-06-23T20:30:00.206Z,54.16
2023-06-23T20:34:55.965Z,54.14
2023-06-23T20:39:51.395Z,54.31
2023-06-23T20:44:46.714Z,54.31
2023-06-23T20:49:42.838Z,54.35
2023-06-23T20:54:37.934Z,54.76
2023-06-23T20:59:33.651Z,54.94
2023-06-23T21:04:28.515Z,55.15
2023-06-23T21:09:23.651Z,55.34
2023-06-23T21:14:20.869Z,55.58
2023-06-23T21:19:17.191Z,55.70
2023-06-23T21:24:13.613Z,55.92
2023-06-23T21:34:08.880Z,56.40
2023-06-23T21:39:05.522Z,56.60
2023-06-23T21:44:00.873Z,56.67
2023-06-23T21:48:57.373Z,56.90
2023-06-23T21:53:55.075Z,57.32
2023-06-23T21:58:50.145Z,57.51
2023-06-23T22:03:45.161Z,57.69
2023-06-23T22:08:39.810Z,57.89
2023-06-23T22:13:35.068Z,58.09
2023-06-23T22:18:48.412Z,58.21
2023-06-23T22:23:45.101Z,58.33
2023-06-23T22:28:39.828Z,58.46
2023-06-23T22:33:36.003Z,58.65
2023-06-23T22:38:31.388Z,58.82
2023-06-23T22:43:27.154Z,59.21
2023-06-23T22:48:22.451Z,59.46
2023-06-23T22:53:17.645Z,59.74
2023-06-23T22:58:13.154Z,60.04
2023-06-23T23:03:09.087Z,60.16
2023-06-23T23:08:05.591Z,60.40
2023-06-23T23:13:04.599Z,60.60
2023-06-23T23:17:59.559Z,60.78
2023-06-23T23:22:55.078Z,60.94
2023-06-23T23:27:51.818Z,61.10
2023-06-23T23:32:49.087Z,61.31
2023-06-23T23:37:45.723Z,61.38
2023-06-23T23:42:42.299Z,61.49
2023-06-23T23:47:37.867Z,61.59
2023-06-23T23:52:33.093Z,61.71
2023-06-23T23:57:29.510Z,61.85
